sensor_id;sensor_type;location;lat;lon;timestamp;P1;durP1;ratioP1;P2;durP2;ratioP2
4452;SDS011;2239;48.152;11.584;2022-07-29T00:01:21;1.70;;;0.60;;
4452;SDS011;2239;48.152;11.584;2022-07-29T00:03:46;1.00;;;0.60;;
4452;SDS011;2239;48.152;11.584;2022-07-29T00:06:13;0.70;;;0.60;;
4452;SDS011;2239;48.152;11.584;2022-07-29T00:08:39;0.57;;;0.40;;
4452;SDS011;2239;48.152;11.584;2022-07-29T00:11:05;1.00;;;0.90;;
4452;SDS011;2239;48.152;11.584;2022-07-29T00:13:30;1.30;;;0.90;;
4452;SDS011;2239;48.152;11.584;2022-07-29T00:15:56;0.60;;;0.57;;
4452;SDS011;2239;48.152;11.584;2022-07-29T00:18:22;0.70;;;0.70;;
4452;SDS011;2239;48.152;11.584;2022-07-29T00:20:47;0.80;;;0.63;;
4452;SDS011;2239;48.152;11.584;2022-07-29T00:23:13;1.97;;;0.80;;
4452;SDS011;2239;48.152;11.584;2022-07-29T00:25:39;1.10;;;1.00;;
4452;SDS011;2239;48.152;11.584;2022-07-29T00:28:04;1.00;;;0.77;;
4452;SDS011;2239;48.152;11.584;2022-07-29T00:30:30;0.80;;;0.80;;
4452;SDS011;2239;48.152;11.584;2022-07-29T00:32:56;0.67;;;0.67;;
4452;SDS011;2239;48.152;11.584;2022-07-29T00:35:22;1.10;;;0.70;;
4452;SDS011;2239;48.152;11.584;2022-07-29T00:38:06;0.90;;;0.80;;
4452;SDS011;2239;48.152;11.584;2022-07-29T00:40:31;0.93;;;0.73;;
4452;SDS011;2239;48.152;11.584;2022-07-29T00:42:57;1.53;;;0.70;;
4452;SDS011;2239;48.152;11.584;2022-07-29T00:45:23;1.27;;;0.90;;
4452;SDS011;2239;48.152;11.584;2022-07-29T00:47:50;1.10;;;0.73;;
4452;SDS011;2239;48.152;11.584;2022-07-29T00:50:15;8.20;;;1.00;;
4452;SDS011;2239;48.152;11.584;2022-07-29T00:52:42;2.50;;;0.97;;
4452;SDS011;2239;48.152;11.584;2022-07-29T00:55:09;1.70;;;0.70;;
4452;SDS011;2239;48.152;11.584;2022-07-29T00:57:37;1.27;;;0.83;;
4452;SDS011;2239;48.152;11.584;2022-07-29T01:00:03;1.13;;;0.90;;
4452;SDS011;2239;48.152;11.584;2022-07-29T01:02:30;1.67;;;0.97;;
4452;SDS011;2239;48.152;11.584;2022-07-29T01:04:57;0.70;;;0.50;;
4452;SDS011;2239;48.152;11.584;2022-07-29T01:07:24;0.80;;;0.70;;
4452;SDS011;2239;48.152;11.584;2022-07-29T01:09:51;0.80;;;0.80;;
4452;SDS011;2239;48.152;11.584;2022-07-29T01:12:19;0.63;;;0.53;;
4452;SDS011;2239;48.152;11.584;2022-07-29T01:14:47;0.87;;;0.67;;
4452;SDS011;2239;48.152;11.584;2022-07-29T01:17:22;0.90;;;0.60;;
4452;SDS011;2239;48.152;11.584;2022-07-29T01:20:01;0.90;;;0.60;;
4452;SDS011;2239;48.152;11.584;2022-07-29T01:25:17;1.13;;;0.60;;
4452;SDS011;2239;48.152;11.584;2022-07-29T01:30:32;0.83;;;0.63;;
4452;SDS011;2239;48.152;11.584;2022-07-29T01:33:00;0.80;;;0.60;;
4452;SDS011;2239;48.152;11.584;2022-07-29T01:35:33;1.17;;;0.70;;
4452;SDS011;2239;48.152;11.584;2022-07-29T01:38:20;0.57;;;0.50;;
4452;SDS011;2239;48.152;11.584;2022-07-29T01:40:51;1.33;;;0.63;;
4452;SDS011;2239;48.152;11.584;2022-07-29T01:43:20;0.90;;;0.50;;
4452;SDS011;2239;48.152;11.584;2022-07-29T01:45:59;0.70;;;0.53;;
4452;SDS011;2239;48.152;11.584;2022-07-29T01:48:34;1.20;;;0.63;;
4452;SDS011;2239;48.152;11.584;2022-07-29T01:51:18;1.43;;;0.80;;
4452;SDS011;2239;48.152;11.584;2022-07-29T01:53:57;1.13;;;0.60;;
4452;SDS011;2239;48.152;11.584;2022-07-29T01:56:39;1.00;;;0.57;;
4452;SDS011;2239;48.152;11.584;2022-07-29T01:59:07;0.60;;;0.60;;
4452;SDS011;2239;48.152;11.584;2022-07-29T02:01:35;0.80;;;0.70;;
4452;SDS011;2239;48.152;11.584;2022-07-29T02:04:03;0.87;;;0.63;;
4452;SDS011;2239;48.152;11.584;2022-07-29T02:06:31;1.20;;;0.60;;
4452;SDS011;2239;48.152;11.584;2022-07-29T02:08:58;0.70;;;0.60;;
4452;SDS011;2239;48.152;11.584;2022-07-29T02:11:25;0.73;;;0.70;;
4452;SDS011;2239;48.152;11.584;2022-07-29T02:13:52;0.90;;;0.73;;
4452;SDS011;2239;48.152;11.584;2022-07-29T02:16:21;1.80;;;0.80;;
4452;SDS011;2239;48.152;11.584;2022-07-29T02:18:49;0.60;;;0.53;;
4452;SDS011;2239;48.152;11.584;2022-07-29T02:21:19;0.90;;;0.50;;
4452;SDS011;2239;48.152;11.584;2022-07-29T02:23:47;1.57;;;0.90;;
4452;SDS011;2239;48.152;11.584;2022-07-29T02:26:14;1.00;;;0.67;;
4452;SDS011;2239;48.152;11.584;2022-07-29T02:28:41;1.67;;;1.00;;
4452;SDS011;2239;48.152;11.584;2022-07-29T02:31:08;0.97;;;0.70;;
4452;SDS011;2239;48.152;11.584;2022-07-29T02:33:35;0.80;;;0.70;;
4452;SDS011;2239;48.152;11.584;2022-07-29T02:36:02;1.40;;;0.90;;
4452;SDS011;2239;48.152;11.584;2022-07-29T02:38:28;0.73;;;0.73;;
4452;SDS011;2239;48.152;11.584;2022-07-29T02:41:16;1.40;;;1.00;;
4452;SDS011;2239;48.152;11.584;2022-07-29T02:43:47;0.93;;;0.60;;
4452;SDS011;2239;48.152;11.584;2022-07-29T02:46:17;1.87;;;0.60;;
4452;SDS011;2239;48.152;11.584;2022-07-29T02:48:51;0.80;;;0.60;;
4452;SDS011;2239;48.152;11.584;2022-07-29T02:51:24;0.60;;;0.57;;
4452;SDS011;2239;48.152;11.584;2022-07-29T02:53:54;1.20;;;0.93;;
4452;SDS011;2239;48.152;11.584;2022-07-29T02:56:25;1.00;;;0.70;;
4452;SDS011;2239;48.152;11.584;2022-07-29T02:58:54;0.60;;;0.50;;
4452;SDS011;2239;48.152;11.584;2022-07-29T03:01:26;0.70;;;0.50;;
4452;SDS011;2239;48.152;11.584;2022-07-29T03:03:55;1.63;;;0.70;;
4452;SDS011;2239;48.152;11.584;2022-07-29T03:06:22;0.80;;;0.57;;
4452;SDS011;2239;48.152;11.584;2022-07-29T03:08:50;0.70;;;0.60;;
4452;SDS011;2239;48.152;11.584;2022-07-29T03:11:16;1.00;;;0.80;;
4452;SDS011;2239;48.152;11.584;2022-07-29T03:13:43;0.80;;;0.50;;
4452;SDS011;2239;48.152;11.584;2022-07-29T03:16:09;0.70;;;0.50;;
4452;SDS011;2239;48.152;11.584;2022-07-29T03:18:36;1.33;;;0.60;;
4452;SDS011;2239;48.152;11.584;2022-07-29T03:21:03;0.80;;;0.60;;
4452;SDS011;2239;48.152;11.584;2022-07-29T03:23:29;0.70;;;0.63;;
4452;SDS011;2239;48.152;11.584;2022-07-29T03:25:55;0.90;;;0.50;;
4452;SDS011;2239;48.152;11.584;2022-07-29T03:28:21;0.73;;;0.50;;
4452;SDS011;2239;48.152;11.584;2022-07-29T03:30:48;1.10;;;0.63;;
4452;SDS011;2239;48.152;11.584;2022-07-29T03:33:14;0.67;;;0.57;;
4452;SDS011;2239;48.152;11.584;2022-07-29T03:35:40;1.10;;;0.60;;
4452;SDS011;2239;48.152;11.584;2022-07-29T03:38:06;0.73;;;0.50;;
4452;SDS011;2239;48.152;11.584;2022-07-29T03:40:42;0.60;;;0.50;;
4452;SDS011;2239;48.152;11.584;2022-07-29T03:43:11;0.73;;;0.70;;
4452;SDS011;2239;48.152;11.584;2022-07-29T03:45:41;0.93;;;0.60;;
4452;SDS011;2239;48.152;11.584;2022-07-29T03:48:10;1.30;;;0.90;;
4452;SDS011;2239;48.152;11.584;2022-07-29T03:50:38;1.27;;;0.70;;
4452;SDS011;2239;48.152;11.584;2022-07-29T03:53:04;1.37;;;0.83;;
4452;SDS011;2239;48.152;11.584;2022-07-29T03:55:32;0.70;;;0.70;;
4452;SDS011;2239;48.152;11.584;2022-07-29T03:58:06;0.87;;;0.70;;
4452;SDS011;2239;48.152;11.584;2022-07-29T04:00:33;1.43;;;0.70;;
4452;SDS011;2239;48.152;11.584;2022-07-29T04:03:00;0.80;;;0.70;;
4452;SDS011;2239;48.152;11.584;2022-07-29T04:05:28;1.13;;;0.60;;
4452;SDS011;2239;48.152;11.584;2022-07-29T04:07:54;1.20;;;0.70;;
4452;SDS011;2239;48.152;11.584;2022-07-29T04:10:19;0.90;;;0.80;;
4452;SDS011;2239;48.152;11.584;2022-07-29T04:12:45;0.90;;;0.60;;
4452;SDS011;2239;48.152;11.584;2022-07-29T04:15:11;0.60;;;0.50;;
4452;SDS011;2239;48.152;11.584;2022-07-29T04:17:37;1.53;;;1.00;;
4452;SDS011;2239;48.152;11.584;2022-07-29T04:20:03;0.83;;;0.80;;
4452;SDS011;2239;48.152;11.584;2022-07-29T04:22:30;0.73;;;0.70;;
4452;SDS011;2239;48.152;11.584;2022-07-29T04:24:55;1.63;;;1.00;;
4452;SDS011;2239;48.152;11.584;2022-07-29T04:27:21;0.90;;;0.70;;
4452;SDS011;2239;48.152;11.584;2022-07-29T04:29:47;1.07;;;0.93;;
4452;SDS011;2239;48.152;11.584;2022-07-29T04:32:12;1.20;;;0.90;;
4452;SDS011;2239;48.152;11.584;2022-07-29T04:34:38;1.13;;;0.80;;
4452;SDS011;2239;48.152;11.584;2022-07-29T04:37:03;0.90;;;0.70;;
4452;SDS011;2239;48.152;11.584;2022-07-29T04:39:29;1.47;;;0.80;;
4452;SDS011;2239;48.152;11.584;2022-07-29T04:41:55;1.00;;;0.90;;
4452;SDS011;2239;48.152;11.584;2022-07-29T04:44:21;2.03;;;0.80;;
4452;SDS011;2239;48.152;11.584;2022-07-29T04:46:47;1.00;;;0.70;;
4452;SDS011;2239;48.152;11.584;2022-07-29T04:49:12;0.80;;;0.60;;
4452;SDS011;2239;48.152;11.584;2022-07-29T04:51:38;1.00;;;0.73;;
4452;SDS011;2239;48.152;11.584;2022-07-29T04:54:04;1.23;;;0.60;;
4452;SDS011;2239;48.152;11.584;2022-07-29T04:56:29;0.70;;;0.67;;
4452;SDS011;2239;48.152;11.584;2022-07-29T04:58:55;0.80;;;0.63;;
4452;SDS011;2239;48.152;11.584;2022-07-29T05:01:21;0.83;;;0.63;;
4452;SDS011;2239;48.152;11.584;2022-07-29T05:03:46;1.50;;;1.03;;
4452;SDS011;2239;48.152;11.584;2022-07-29T05:06:12;0.73;;;0.73;;
4452;SDS011;2239;48.152;11.584;2022-07-29T05:08:38;2.10;;;1.17;;
4452;SDS011;2239;48.152;11.584;2022-07-29T05:11:03;2.50;;;1.10;;
4452;SDS011;2239;48.152;11.584;2022-07-29T05:13:29;0.70;;;0.70;;
4452;SDS011;2239;48.152;11.584;2022-07-29T05:15:55;1.43;;;0.70;;
4452;SDS011;2239;48.152;11.584;2022-07-29T05:18:23;1.40;;;0.70;;
4452;SDS011;2239;48.152;11.584;2022-07-29T05:20:49;4.50;;;0.80;;
4452;SDS011;2239;48.152;11.584;2022-07-29T05:23:14;0.60;;;0.60;;
4452;SDS011;2239;48.152;11.584;2022-07-29T05:25:40;1.63;;;0.60;;
4452;SDS011;2239;48.152;11.584;2022-07-29T05:28:06;1.00;;;0.83;;
4452;SDS011;2239;48.152;11.584;2022-07-29T05:30:32;1.30;;;0.70;;
4452;SDS011;2239;48.152;11.584;2022-07-29T05:32:57;0.80;;;0.70;;
4452;SDS011;2239;48.152;11.584;2022-07-29T05:35:23;1.57;;;0.70;;
4452;SDS011;2239;48.152;11.584;2022-07-29T05:37:49;1.00;;;0.80;;
4452;SDS011;2239;48.152;11.584;2022-07-29T05:40:15;1.00;;;0.90;;
4452;SDS011;2239;48.152;11.584;2022-07-29T05:42:41;2.30;;;1.00;;
4452;SDS011;2239;48.152;11.584;2022-07-29T05:45:06;1.20;;;0.90;;
4452;SDS011;2239;48.152;11.584;2022-07-29T05:47:33;1.27;;;0.90;;
4452;SDS011;2239;48.152;11.584;2022-07-29T05:49:59;1.30;;;1.10;;
4452;SDS011;2239;48.152;11.584;2022-07-29T05:52:25;1.50;;;0.80;;
4452;SDS011;2239;48.152;11.584;2022-07-29T05:54:50;1.30;;;1.03;;
4452;SDS011;2239;48.152;11.584;2022-07-29T05:57:20;0.83;;;0.83;;
4452;SDS011;2239;48.152;11.584;2022-07-29T05:59:47;1.30;;;1.20;;
4452;SDS011;2239;48.152;11.584;2022-07-29T06:02:14;3.47;;;1.30;;
4452;SDS011;2239;48.152;11.584;2022-07-29T06:04:40;1.73;;;1.00;;
4452;SDS011;2239;48.152;11.584;2022-07-29T06:07:06;1.50;;;1.10;;
4452;SDS011;2239;48.152;11.584;2022-07-29T06:09:32;1.53;;;1.00;;
4452;SDS011;2239;48.152;11.584;2022-07-29T06:11:58;0.83;;;0.70;;
4452;SDS011;2239;48.152;11.584;2022-07-29T06:14:25;1.10;;;0.90;;
4452;SDS011;2239;48.152;11.584;2022-07-29T06:16:51;1.13;;;0.90;;
4452;SDS011;2239;48.152;11.584;2022-07-29T06:19:18;2.00;;;0.87;;
4452;SDS011;2239;48.152;11.584;2022-07-29T06:21:43;1.80;;;0.83;;
4452;SDS011;2239;48.152;11.584;2022-07-29T06:24:12;1.93;;;1.20;;
4452;SDS011;2239;48.152;11.584;2022-07-29T06:26:39;1.20;;;0.87;;
4452;SDS011;2239;48.152;11.584;2022-07-29T06:29:05;1.00;;;0.80;;
4452;SDS011;2239;48.152;11.584;2022-07-29T06:31:31;0.87;;;0.80;;
4452;SDS011;2239;48.152;11.584;2022-07-29T06:33:57;0.80;;;0.70;;
4452;SDS011;2239;48.152;11.584;2022-07-29T06:36:23;1.10;;;0.87;;
4452;SDS011;2239;48.152;11.584;2022-07-29T06:38:48;2.70;;;0.67;;
4452;SDS011;2239;48.152;11.584;2022-07-29T06:41:14;0.80;;;0.80;;
4452;SDS011;2239;48.152;11.584;2022-07-29T06:43:41;0.90;;;0.70;;
4452;SDS011;2239;48.152;11.584;2022-07-29T06:46:09;1.07;;;0.70;;
4452;SDS011;2239;48.152;11.584;2022-07-29T06:48:37;1.43;;;0.83;;
4452;SDS011;2239;48.152;11.584;2022-07-29T06:51:04;1.00;;;0.87;;
4452;SDS011;2239;48.152;11.584;2022-07-29T06:53:31;1.97;;;1.00;;
4452;SDS011;2239;48.152;11.584;2022-07-29T06:55:58;1.10;;;0.60;;
4452;SDS011;2239;48.152;11.584;2022-07-29T06:58:25;1.03;;;0.93;;
4452;SDS011;2239;48.152;11.584;2022-07-29T07:00:51;1.20;;;0.70;;
4452;SDS011;2239;48.152;11.584;2022-07-29T07:03:17;0.80;;;0.60;;
4452;SDS011;2239;48.152;11.584;2022-07-29T07:05:44;0.87;;;0.70;;
4452;SDS011;2239;48.152;11.584;2022-07-29T07:08:10;1.33;;;0.90;;
4452;SDS011;2239;48.152;11.584;2022-07-29T07:10:37;2.00;;;0.70;;
4452;SDS011;2239;48.152;11.584;2022-07-29T07:13:03;1.93;;;1.03;;
4452;SDS011;2239;48.152;11.584;2022-07-29T07:15:29;2.60;;;0.90;;
4452;SDS011;2239;48.152;11.584;2022-07-29T07:17:55;1.20;;;0.87;;
4452;SDS011;2239;48.152;11.584;2022-07-29T07:20:22;0.83;;;0.70;;
4452;SDS011;2239;48.152;11.584;2022-07-29T07:22:47;1.50;;;1.10;;
4452;SDS011;2239;48.152;11.584;2022-07-29T07:25:13;1.20;;;0.80;;
4452;SDS011;2239;48.152;11.584;2022-07-29T07:27:39;1.17;;;0.77;;
4452;SDS011;2239;48.152;11.584;2022-07-29T07:30:05;0.90;;;0.80;;
4452;SDS011;2239;48.152;11.584;2022-07-29T07:32:34;1.30;;;0.70;;
4452;SDS011;2239;48.152;11.584;2022-07-29T07:35:00;1.10;;;0.60;;
4452;SDS011;2239;48.152;11.584;2022-07-29T07:37:26;1.13;;;1.00;;
4452;SDS011;2239;48.152;11.584;2022-07-29T07:39:52;1.80;;;0.97;;
4452;SDS011;2239;48.152;11.584;2022-07-29T07:42:18;0.80;;;0.70;;
4452;SDS011;2239;48.152;11.584;2022-07-29T07:44:44;2.67;;;1.10;;
4452;SDS011;2239;48.152;11.584;2022-07-29T07:47:13;1.20;;;0.87;;
4452;SDS011;2239;48.152;11.584;2022-07-29T07:49:40;0.70;;;0.60;;
4452;SDS011;2239;48.152;11.584;2022-07-29T07:52:06;1.20;;;0.77;;
4452;SDS011;2239;48.152;11.584;2022-07-29T07:54:31;1.27;;;0.83;;
4452;SDS011;2239;48.152;11.584;2022-07-29T07:56:57;0.90;;;0.70;;
4452;SDS011;2239;48.152;11.584;2022-07-29T07:59:23;1.53;;;1.30;;
4452;SDS011;2239;48.152;11.584;2022-07-29T08:01:49;1.83;;;0.83;;
4452;SDS011;2239;48.152;11.584;2022-07-29T08:04:15;1.27;;;0.77;;
4452;SDS011;2239;48.152;11.584;2022-07-29T08:06:41;1.43;;;0.90;;
4452;SDS011;2239;48.152;11.584;2022-07-29T08:09:07;1.00;;;0.70;;
4452;SDS011;2239;48.152;11.584;2022-07-29T08:11:33;1.87;;;1.10;;
4452;SDS011;2239;48.152;11.584;2022-07-29T08:13:59;1.03;;;0.80;;
4452;SDS011;2239;48.152;11.584;2022-07-29T08:16:26;0.70;;;0.70;;
4452;SDS011;2239;48.152;11.584;2022-07-29T08:18:52;1.10;;;1.00;;
4452;SDS011;2239;48.152;11.584;2022-07-29T08:21:22;1.40;;;1.00;;
4452;SDS011;2239;48.152;11.584;2022-07-29T08:23:48;0.70;;;0.67;;
4452;SDS011;2239;48.152;11.584;2022-07-29T08:26:17;1.00;;;0.90;;
4452;SDS011;2239;48.152;11.584;2022-07-29T08:28:43;1.00;;;0.70;;
4452;SDS011;2239;48.152;11.584;2022-07-29T08:31:10;1.03;;;0.93;;
4452;SDS011;2239;48.152;11.584;2022-07-29T08:33:37;2.40;;;1.00;;
4452;SDS011;2239;48.152;11.584;2022-07-29T08:36:04;0.93;;;0.77;;
4452;SDS011;2239;48.152;11.584;2022-07-29T08:38:31;1.50;;;1.10;;
4452;SDS011;2239;48.152;11.584;2022-07-29T08:40:57;0.97;;;0.70;;
4452;SDS011;2239;48.152;11.584;2022-07-29T08:43:25;1.07;;;0.77;;
4452;SDS011;2239;48.152;11.584;2022-07-29T08:45:51;1.20;;;0.90;;
4452;SDS011;2239;48.152;11.584;2022-07-29T08:48:18;1.40;;;0.90;;
4452;SDS011;2239;48.152;11.584;2022-07-29T08:50:46;1.40;;;1.00;;
4452;SDS011;2239;48.152;11.584;2022-07-29T08:53:13;1.67;;;1.00;;
4452;SDS011;2239;48.152;11.584;2022-07-29T08:55:42;1.30;;;0.90;;
4452;SDS011;2239;48.152;11.584;2022-07-29T08:58:10;1.43;;;1.00;;
4452;SDS011;2239;48.152;11.584;2022-07-29T09:00:39;1.67;;;1.10;;
4452;SDS011;2239;48.152;11.584;2022-07-29T09:03:07;1.27;;;1.07;;
4452;SDS011;2239;48.152;11.584;2022-07-29T09:05:37;2.43;;;1.30;;
4452;SDS011;2239;48.152;11.584;2022-07-29T09:08:06;2.23;;;1.17;;
4452;SDS011;2239;48.152;11.584;2022-07-29T09:10:32;1.77;;;1.40;;
4452;SDS011;2239;48.152;11.584;2022-07-29T09:13:00;1.40;;;1.10;;
4452;SDS011;2239;48.152;11.584;2022-07-29T09:15:26;1.10;;;0.97;;
4452;SDS011;2239;48.152;11.584;2022-07-29T09:17:51;1.63;;;1.37;;
4452;SDS011;2239;48.152;11.584;2022-07-29T09:20:20;2.50;;;1.20;;
4452;SDS011;2239;48.152;11.584;2022-07-29T09:22:47;1.13;;;1.03;;
4452;SDS011;2239;48.152;11.584;2022-07-29T09:25:14;1.20;;;1.10;;
4452;SDS011;2239;48.152;11.584;2022-07-29T09:28:04;2.23;;;1.40;;
4452;SDS011;2239;48.152;11.584;2022-07-29T09:30:31;1.80;;;1.13;;
4452;SDS011;2239;48.152;11.584;2022-07-29T09:32:57;1.90;;;1.17;;
4452;SDS011;2239;48.152;11.584;2022-07-29T09:35:26;1.50;;;1.00;;
4452;SDS011;2239;48.152;11.584;2022-07-29T09:37:53;1.30;;;1.10;;
4452;SDS011;2239;48.152;11.584;2022-07-29T09:42:50;2.20;;;1.33;;
4452;SDS011;2239;48.152;11.584;2022-07-29T09:45:29;1.10;;;1.00;;
4452;SDS011;2239;48.152;11.584;2022-07-29T09:47:56;2.10;;;1.70;;
4452;SDS011;2239;48.152;11.584;2022-07-29T09:53:06;1.30;;;1.03;;
4452;SDS011;2239;48.152;11.584;2022-07-29T09:55:45;1.90;;;1.20;;
4452;SDS011;2239;48.152;11.584;2022-07-29T09:58:18;3.17;;;1.50;;
4452;SDS011;2239;48.152;11.584;2022-07-29T10:00:45;3.17;;;1.63;;
4452;SDS011;2239;48.152;11.584;2022-07-29T10:03:12;2.33;;;1.23;;
4452;SDS011;2239;48.152;11.584;2022-07-29T10:05:38;2.13;;;1.17;;
4452;SDS011;2239;48.152;11.584;2022-07-29T10:08:05;1.87;;;1.47;;
4452;SDS011;2239;48.152;11.584;2022-07-29T10:10:36;1.63;;;1.33;;
4452;SDS011;2239;48.152;11.584;2022-07-29T10:13:07;1.57;;;1.13;;
4452;SDS011;2239;48.152;11.584;2022-07-29T10:15:38;1.10;;;1.00;;
4452;SDS011;2239;48.152;11.584;2022-07-29T10:18:09;2.33;;;1.20;;
4452;SDS011;2239;48.152;11.584;2022-07-29T10:20:37;1.80;;;1.40;;
4452;SDS011;2239;48.152;11.584;2022-07-29T10:23:03;2.33;;;1.40;;
4452;SDS011;2239;48.152;11.584;2022-07-29T10:25:30;1.80;;;1.53;;
4452;SDS011;2239;48.152;11.584;2022-07-29T10:27:56;1.70;;;1.23;;
4452;SDS011;2239;48.152;11.584;2022-07-29T10:30:23;1.50;;;1.40;;
4452;SDS011;2239;48.152;11.584;2022-07-29T10:32:54;1.80;;;1.50;;
4452;SDS011;2239;48.152;11.584;2022-07-29T10:38:07;1.43;;;1.30;;
4452;SDS011;2239;48.152;11.584;2022-07-29T10:41:01;1.63;;;1.40;;
4452;SDS011;2239;48.152;11.584;2022-07-29T10:46:38;2.87;;;1.57;;
4452;SDS011;2239;48.152;11.584;2022-07-29T11:07:31;1.60;;;1.33;;
4452;SDS011;2239;48.152;11.584;2022-07-29T11:15:15;2.13;;;1.40;;
4452;SDS011;2239;48.152;11.584;2022-07-29T11:25:45;1.30;;;1.03;;
4452;SDS011;2239;48.152;11.584;2022-07-29T11:29:06;1.13;;;1.00;;
4452;SDS011;2239;48.152;11.584;2022-07-29T11:31:44;1.57;;;1.20;;
4452;SDS011;2239;48.152;11.584;2022-07-29T11:34:32;1.27;;;1.17;;
4452;SDS011;2239;48.152;11.584;2022-07-29T11:45:06;2.17;;;1.40;;
4452;SDS011;2239;48.152;11.584;2022-07-29T11:47:35;1.43;;;1.17;;
4452;SDS011;2239;48.152;11.584;2022-07-29T11:50:14;1.60;;;1.27;;
4452;SDS011;2239;48.152;11.584;2022-07-29T11:52:45;1.37;;;1.20;;
4452;SDS011;2239;48.152;11.584;2022-07-29T11:55:16;1.40;;;1.27;;
4452;SDS011;2239;48.152;11.584;2022-07-29T11:57:47;1.83;;;1.20;;
4452;SDS011;2239;48.152;11.584;2022-07-29T12:00:31;2.10;;;1.53;;
4452;SDS011;2239;48.152;11.584;2022-07-29T12:03:04;1.53;;;1.00;;
4452;SDS011;2239;48.152;11.584;2022-07-29T12:05:40;1.70;;;1.37;;
4452;SDS011;2239;48.152;11.584;2022-07-29T12:08:08;2.23;;;1.30;;
4452;SDS011;2239;48.152;11.584;2022-07-29T12:10:34;2.30;;;1.33;;
4452;SDS011;2239;48.152;11.584;2022-07-29T12:13:00;1.87;;;1.23;;
4452;SDS011;2239;48.152;11.584;2022-07-29T12:15:26;1.40;;;1.17;;
4452;SDS011;2239;48.152;11.584;2022-07-29T12:17:52;3.33;;;1.80;;
4452;SDS011;2239;48.152;11.584;2022-07-29T12:20:24;1.47;;;1.20;;
4452;SDS011;2239;48.152;11.584;2022-07-29T12:22:52;1.67;;;1.40;;
4452;SDS011;2239;48.152;11.584;2022-07-29T12:25:19;1.40;;;1.27;;
4452;SDS011;2239;48.152;11.584;2022-07-29T12:27:47;1.40;;;1.30;;
4452;SDS011;2239;48.152;11.584;2022-07-29T12:30:22;2.87;;;1.47;;
4452;SDS011;2239;48.152;11.584;2022-07-29T12:32:48;2.00;;;1.33;;
4452;SDS011;2239;48.152;11.584;2022-07-29T12:35:14;1.63;;;1.23;;
4452;SDS011;2239;48.152;11.584;2022-07-29T12:37:45;1.57;;;1.20;;
4452;SDS011;2239;48.152;11.584;2022-07-29T12:40:18;2.20;;;1.60;;
4452;SDS011;2239;48.152;11.584;2022-07-29T12:45:41;1.47;;;1.37;;
4452;SDS011;2239;48.152;11.584;2022-07-29T12:48:09;1.13;;;0.97;;
4452;SDS011;2239;48.152;11.584;2022-07-29T12:50:36;2.63;;;1.27;;
4452;SDS011;2239;48.152;11.584;2022-07-29T12:53:12;2.53;;;1.60;;
4452;SDS011;2239;48.152;11.584;2022-07-29T12:55:39;1.00;;;1.00;;
4452;SDS011;2239;48.152;11.584;2022-07-29T12:58:26;1.43;;;1.33;;
4452;SDS011;2239;48.152;11.584;2022-07-29T13:01:00;1.60;;;1.20;;
4452;SDS011;2239;48.152;11.584;2022-07-29T13:03:52;2.20;;;1.20;;
4452;SDS011;2239;48.152;11.584;2022-07-29T13:11:37;1.33;;;1.00;;
4452;SDS011;2239;48.152;11.584;2022-07-29T13:14:07;1.93;;;1.20;;
4452;SDS011;2239;48.152;11.584;2022-07-29T13:16:35;1.57;;;1.20;;
4452;SDS011;2239;48.152;11.584;2022-07-29T13:19:06;2.30;;;1.63;;
4452;SDS011;2239;48.152;11.584;2022-07-29T13:21:36;1.23;;;1.10;;
4452;SDS011;2239;48.152;11.584;2022-07-29T13:24:04;1.30;;;1.20;;
4452;SDS011;2239;48.152;11.584;2022-07-29T13:26:31;1.10;;;1.00;;
4452;SDS011;2239;48.152;11.584;2022-07-29T13:28:57;1.60;;;1.40;;
4452;SDS011;2239;48.152;11.584;2022-07-29T13:31:23;2.13;;;1.20;;
4452;SDS011;2239;48.152;11.584;2022-07-29T13:33:49;2.60;;;1.63;;
4452;SDS011;2239;48.152;11.584;2022-07-29T13:36:15;1.23;;;1.10;;
4452;SDS011;2239;48.152;11.584;2022-07-29T13:38:41;1.33;;;1.07;;
4452;SDS011;2239;48.152;11.584;2022-07-29T13:41:07;2.20;;;1.13;;
4452;SDS011;2239;48.152;11.584;2022-07-29T13:43:33;1.40;;;1.10;;
4452;SDS011;2239;48.152;11.584;2022-07-29T13:45:59;1.37;;;1.20;;
4452;SDS011;2239;48.152;11.584;2022-07-29T13:48:25;2.00;;;1.20;;
4452;SDS011;2239;48.152;11.584;2022-07-29T13:50:50;2.63;;;1.40;;
4452;SDS011;2239;48.152;11.584;2022-07-29T13:53:16;1.27;;;1.00;;
4452;SDS011;2239;48.152;11.584;2022-07-29T13:55:42;1.37;;;1.13;;
4452;SDS011;2239;48.152;11.584;2022-07-29T13:58:08;1.53;;;1.20;;
4452;SDS011;2239;48.152;11.584;2022-07-29T14:00:33;1.63;;;1.13;;
4452;SDS011;2239;48.152;11.584;2022-07-29T14:02:59;2.23;;;1.40;;
4452;SDS011;2239;48.152;11.584;2022-07-29T14:05:24;2.23;;;1.00;;
4452;SDS011;2239;48.152;11.584;2022-07-29T14:07:50;1.40;;;1.30;;
4452;SDS011;2239;48.152;11.584;2022-07-29T14:10:16;4.93;;;1.40;;
4452;SDS011;2239;48.152;11.584;2022-07-29T14:12:41;1.73;;;1.20;;
4452;SDS011;2239;48.152;11.584;2022-07-29T14:15:07;1.50;;;1.30;;
4452;SDS011;2239;48.152;11.584;2022-07-29T14:17:34;1.10;;;1.00;;
4452;SDS011;2239;48.152;11.584;2022-07-29T14:20:00;1.10;;;1.00;;
4452;SDS011;2239;48.152;11.584;2022-07-29T14:22:25;1.33;;;1.00;;
4452;SDS011;2239;48.152;11.584;2022-07-29T14:24:51;3.53;;;1.30;;
4452;SDS011;2239;48.152;11.584;2022-07-29T14:27:17;1.50;;;1.27;;
4452;SDS011;2239;48.152;11.584;2022-07-29T14:29:43;1.40;;;0.90;;
4452;SDS011;2239;48.152;11.584;2022-07-29T14:32:09;1.30;;;1.20;;
4452;SDS011;2239;48.152;11.584;2022-07-29T14:34:35;1.20;;;1.10;;
4452;SDS011;2239;48.152;11.584;2022-07-29T14:37:01;2.17;;;1.53;;
4452;SDS011;2239;48.152;11.584;2022-07-29T14:39:29;1.33;;;1.03;;
4452;SDS011;2239;48.152;11.584;2022-07-29T14:41:56;1.07;;;0.97;;
4452;SDS011;2239;48.152;11.584;2022-07-29T14:44:22;1.47;;;1.00;;
4452;SDS011;2239;48.152;11.584;2022-07-29T14:46:48;1.23;;;1.10;;
4452;SDS011;2239;48.152;11.584;2022-07-29T14:49:14;1.33;;;1.00;;
4452;SDS011;2239;48.152;11.584;2022-07-29T14:51:40;1.10;;;0.97;;
4452;SDS011;2239;48.152;11.584;2022-07-29T14:54:06;1.43;;;1.13;;
4452;SDS011;2239;48.152;11.584;2022-07-29T14:56:32;1.87;;;1.57;;
4452;SDS011;2239;48.152;11.584;2022-07-29T14:58:57;1.17;;;1.07;;
4452;SDS011;2239;48.152;11.584;2022-07-29T15:01:23;1.40;;;1.10;;
4452;SDS011;2239;48.152;11.584;2022-07-29T15:03:49;1.20;;;1.10;;
4452;SDS011;2239;48.152;11.584;2022-07-29T15:06:15;1.13;;;1.03;;
4452;SDS011;2239;48.152;11.584;2022-07-29T15:08:41;2.03;;;1.10;;
4452;SDS011;2239;48.152;11.584;2022-07-29T15:11:07;1.13;;;1.03;;
4452;SDS011;2239;48.152;11.584;2022-07-29T15:13:33;1.70;;;1.33;;
4452;SDS011;2239;48.152;11.584;2022-07-29T15:15:59;2.17;;;1.40;;
4452;SDS011;2239;48.152;11.584;2022-07-29T15:18:25;1.43;;;1.30;;
4452;SDS011;2239;48.152;11.584;2022-07-29T15:20:50;1.40;;;1.23;;
4452;SDS011;2239;48.152;11.584;2022-07-29T15:23:16;1.30;;;1.20;;
4452;SDS011;2239;48.152;11.584;2022-07-29T15:25:42;1.37;;;1.07;;
4452;SDS011;2239;48.152;11.584;2022-07-29T15:28:08;2.27;;;1.20;;
4452;SDS011;2239;48.152;11.584;2022-07-29T15:30:34;1.30;;;1.10;;
4452;SDS011;2239;48.152;11.584;2022-07-29T15:33:05;2.20;;;1.37;;
4452;SDS011;2239;48.152;11.584;2022-07-29T15:35:33;2.83;;;1.40;;
4452;SDS011;2239;48.152;11.584;2022-07-29T15:37:59;2.00;;;1.20;;
4452;SDS011;2239;48.152;11.584;2022-07-29T15:40:26;1.20;;;1.10;;
4452;SDS011;2239;48.152;11.584;2022-07-29T15:42:53;1.27;;;1.17;;
4452;SDS011;2239;48.152;11.584;2022-07-29T15:45:19;1.50;;;1.20;;
4452;SDS011;2239;48.152;11.584;2022-07-29T15:47:44;1.40;;;1.03;;
4452;SDS011;2239;48.152;11.584;2022-07-29T15:50:10;1.10;;;1.00;;
4452;SDS011;2239;48.152;11.584;2022-07-29T15:52:41;1.90;;;1.40;;
4452;SDS011;2239;48.152;11.584;2022-07-29T15:55:07;1.57;;;1.10;;
4452;SDS011;2239;48.152;11.584;2022-07-29T15:57:33;2.63;;;1.30;;
4452;SDS011;2239;48.152;11.584;2022-07-29T15:59:59;2.33;;;1.37;;
4452;SDS011;2239;48.152;11.584;2022-07-29T16:02:25;1.40;;;1.30;;
4452;SDS011;2239;48.152;11.584;2022-07-29T16:04:50;1.30;;;1.20;;
4452;SDS011;2239;48.152;11.584;2022-07-29T16:07:16;1.57;;;1.10;;
4452;SDS011;2239;48.152;11.584;2022-07-29T16:09:42;1.37;;;1.00;;